Time;durP1;ratioP1;P1;durP2;ratioP2;P2;SDS_P1;SDS_P2;PMS_P1;PMS_P2;Temp;Humidity;BMP_temperature;BMP_pressure;BME280_temperature;BME280_humidity;BME280_pressure;Samples;Min_cycle;Max_cycle;Signal;HPM_P1;HPM_P2
2021/10/25 00:01:40;;;;;;;6.37;3.83;;;11.80;99.90;;;;;;4915714;29;20457;-81
2021/10/25 00:04:08;;;;;;;5.10;3.80;;;11.60;99.90;;;;;;4913617;29;20480;-82
2021/10/25 00:06:38;;;;;;;3.33;3.00;;;11.60;99.90;;;;;;4916174;29;21296;-80
2021/10/25 00:09:06;;;;;;;6.63;3.70;;;11.50;99.90;;;;;;4919320;29;20449;-81
2021/10/25 00:11:34;;;;;;;4.37;3.70;;;11.40;99.90;;;;;;4909823;29;20464;-81
2021/10/25 00:14:02;;;;;;;4.27;3.23;;;11.40;99.90;;;;;;4913375;29;20489;-80
2021/10/25 00:16:32;;;;;;;3.63;3.07;;;11.40;99.90;;;;;;4912396;29;20577;-80
2021/10/25 00:19:00;;;;;;;6.50;4.30;;;11.40;99.90;;;;;;4918960;29;20557;-80
2021/10/25 00:21:28;;;;;;;4.00;3.70;;;11.40;99.90;;;;;;4914351;29;20465;-81
2021/10/25 00:23:57;;;;;;;4.03;3.67;;;11.40;99.90;;;;;;4912352;29;20478;-81
2021/10/25 00:26:25;;;;;;;4.30;3.90;;;11.60;99.90;;;;;;4914909;29;20457;-80
2021/10/25 00:28:53;;;;;;;5.50;3.77;;;11.40;99.90;;;;;;4912813;29;20466;-80
2021/10/25 00:31:21;;;;;;;6.93;3.70;;;11.30;99.90;;;;;;4914265;29;20525;-79
2021/10/25 00:33:51;;;;;;;4.90;3.80;;;11.30;99.90;;;;;;4914274;29;20465;-80
2021/10/25 00:36:20;;;;;;;5.33;3.93;;;11.30;99.90;;;;;;4917038;29;20476;-80
2021/10/25 00:38:48;;;;;;;3.60;3.20;;;11.20;99.90;;;;;;4924118;29;20974;-81
2021/10/25 00:41:17;;;;;;;5.13;3.90;;;11.20;99.90;;;;;;4918118;29;20473;-80
2021/10/25 00:43:45;;;;;;;3.43;3.13;;;11.30;99.90;;;;;;4918532;29;20481;-80
2021/10/25 00:46:13;;;;;;;5.67;4.00;;;11.20;99.90;;;;;;4911397;29;20470;-79
2021/10/25 00:48:41;;;;;;;5.87;4.37;;;11.20;99.90;;;;;;4908826;29;20518;-80
2021/10/25 00:51:12;;;;;;;3.83;3.53;;;11.30;99.90;;;;;;4912951;29;20822;-80
2021/10/25 00:53:41;;;;;;;3.33;2.93;;;11.00;99.90;;;;;;4914075;29;20469;-81
2021/10/25 00:56:09;;;;;;;5.03;3.57;;;11.10;99.90;;;;;;4912621;29;20461;-80
2021/10/25 00:58:38;;;;;;;5.13;3.30;;;11.00;99.90;;;;;;4913686;29;20467;-80
2021/10/25 01:01:07;;;;;;;4.17;3.77;;;10.90;99.90;;;;;;4912584;29;20542;-80
2021/10/25 01:03:36;;;;;;;3.47;3.10;;;10.90;99.90;;;;;;4910530;29;20482;-81
2021/10/25 01:06:06;;;;;;;4.63;4.23;;;10.90;99.90;;;;;;4913955;29;21002;-81
2021/10/25 01:08:38;;;;;;;3.50;3.20;;;11.00;99.90;;;;;;4913469;29;20465;-79
2021/10/25 01:11:07;;;;;;;6.40;3.70;;;10.90;99.90;;;;;;4913270;29;20462;-81
2021/10/25 01:13:36;;;;;;;4.10;3.47;;;11.00;99.90;;;;;;4912946;29;20525;-81
2021/10/25 01:16:07;;;;;;;5.30;3.50;;;11.10;99.90;;;;;;4912743;29;20505;-81
2021/10/25 01:18:35;;;;;;;3.57;2.73;;;11.00;99.90;;;;;;4908049;29;20497;-81
2021/10/25 01:21:04;;;;;;;4.40;3.67;;;11.00;99.90;;;;;;4917723;29;20461;-81
2021/10/25 01:23:33;;;;;;;4.90;3.47;;;11.00;99.90;;;;;;4913579;29;20489;-81
2021/10/25 01:26:02;;;;;;;4.03;3.20;;;11.00;99.90;;;;;;4914353;29;20456;-81
2021/10/25 01:28:30;;;;;;;7.73;3.80;;;10.90;99.90;;;;;;4913662;29;20540;-81
2021/10/25 01:30:59;;;;;;;5.13;3.43;;;11.00;99.90;;;;;;4921310;29;20465;-81
2021/10/25 01:33:29;;;;;;;3.67;3.37;;;10.90;99.90;;;;;;4917336;29;20953;-81
2021/10/25 01:35:57;;;;;;;4.27;3.87;;;11.00;99.90;;;;;;4914857;29;20473;-81
2021/10/25 01:38:26;;;;;;;5.33;2.80;;;10.90;99.90;;;;;;4912435;29;20486;-80
2021/10/25 01:40:56;;;;;;;4.20;2.87;;;10.80;99.90;;;;;;4910830;29;20554;-80
2021/10/25 01:43:24;;;;;;;3.67;3.00;;;10.90;99.90;;;;;;4912010;29;20541;-80
2021/10/25 01:45:53;;;;;;;7.10;3.47;;;10.80;99.90;;;;;;4908887;29;20463;-79
2021/10/25 01:48:22;;;;;;;4.30;4.00;;;10.80;99.90;;;;;;4913808;29;20497;-79
2021/10/25 01:50:52;;;;;;;7.10;4.07;;;10.80;99.90;;;;;;4905451;29;20943;-80
2021/10/25 01:53:21;;;;;;;4.10;3.23;;;10.90;99.90;;;;;;4914048;29;20469;-80
2021/10/25 01:55:52;;;;;;;4.00;2.93;;;10.90;99.90;;;;;;4918797;29;20486;-80
2021/10/25 01:58:20;;;;;;;5.13;3.67;;;10.90;99.90;;;;;;4911623;29;21011;-80
2021/10/25 02:00:48;;;;;;;4.80;3.97;;;10.90;99.90;;;;;;4918036;29;20461;-80
2021/10/25 02:03:17;;;;;;;5.27;3.60;;;10.90;99.90;;;;;;4913576;29;20458;-80
2021/10/25 02:05:45;;;;;;;5.67;3.90;;;10.90;99.90;;;;;;4914791;29;20549;-79
2021/10/25 02:08:13;;;;;;;6.17;3.50;;;10.80;99.90;;;;;;4913998;29;20930;-79
2021/10/25 02:10:42;;;;;;;4.33;3.60;;;10.80;99.90;;;;;;4915753;29;20528;-79
2021/10/25 02:13:15;;;;;;;4.03;3.43;;;10.90;99.90;;;;;;4921487;29;20440;-79
2021/10/25 02:15:45;;;;;;;4.70;3.93;;;10.90;99.90;;;;;;4919763;29;20518;-79
2021/10/25 02:18:13;;;;;;;5.53;3.43;;;10.80;99.90;;;;;;4912544;29;20485;-80
2021/10/25 02:20:42;;;;;;;4.20;3.23;;;10.80;99.90;;;;;;4918873;29;20466;-79
2021/10/25 02:23:10;;;;;;;7.50;4.30;;;10.80;99.90;;;;;;4918088;29;20525;-79
2021/10/25 02:25:39;;;;;;;3.60;2.83;;;10.80;99.90;;;;;;4917102;29;20481;-79
2021/10/25 02:28:07;;;;;;;4.30;3.90;;;10.80;99.90;;;;;;4908679;29;20490;-80
2021/10/25 02:30:36;;;;;;;3.63;3.00;;;10.80;99.90;;;;;;4908865;29;20487;-79
2021/10/25 02:33:05;;;;;;;4.70;3.27;;;10.80;99.90;;;;;;4911826;29;20458;-79
2021/10/25 02:35:33;;;;;;;3.57;3.00;;;10.80;99.90;;;;;;4914343;29;20547;-79
2021/10/25 02:38:01;;;;;;;4.53;3.10;;;10.80;99.90;;;;;;4915032;29;20465;-80
2021/10/25 02:40:31;;;;;;;3.83;3.43;;;10.80;99.90;;;;;;4911745;29;20464;-79
2021/10/25 02:43:00;;;;;;;4.73;3.63;;;10.80;99.90;;;;;;4914764;29;20450;-80
2021/10/25 02:45:30;;;;;;;4.67;3.27;;;10.70;99.90;;;;;;4909474;29;20490;-79
2021/10/25 02:47:59;;;;;;;3.00;2.63;;;10.70;99.90;;;;;;4906871;29;21015;-80
2021/10/25 02:50:28;;;;;;;4.10;3.70;;;10.70;99.90;;;;;;4913525;29;20477;-79
2021/10/25 02:52:56;;;;;;;5.40;3.63;;;10.70;99.90;;;;;;4910137;29;20543;-79
2021/10/25 02:55:24;;;;;;;3.70;3.20;;;10.70;99.90;;;;;;4913503;29;20868;-79
2021/10/25 02:57:52;;;;;;;3.47;3.17;;;10.60;99.90;;;;;;4916225;29;20528;-80
2021/10/25 03:00:20;;;;;;;5.57;2.90;;;10.60;99.90;;;;;;4924198;29;20461;-80
2021/10/25 03:02:49;;;;;;;3.73;2.87;;;10.70;99.90;;;;;;4918758;29;20473;-79
2021/10/25 03:05:18;;;;;;;4.43;3.27;;;10.60;99.90;;;;;;4920333;29;21029;-80
2021/10/25 03:07:47;;;;;;;5.73;3.90;;;10.60;99.90;;;;;;4909752;29;20484;-81
2021/10/25 03:10:15;;;;;;;4.63;3.80;;;10.60;99.90;;;;;;4915943;29;20456;-80
2021/10/25 03:12:43;;;;;;;4.07;3.00;;;10.60;99.90;;;;;;4911974;29;20471;-80
2021/10/25 03:15:11;;;;;;;4.90;2.90;;;10.50;99.90;;;;;;4910634;29;20515;-79
2021/10/25 03:17:40;;;;;;;4.77;4.30;;;10.50;99.90;;;;;;4905914;29;20478;-81
2021/10/25 03:20:10;;;;;;;4.63;3.30;;;10.50;99.90;;;;;;4903555;29;20454;-80
2021/10/25 03:22:40;;;;;;;4.40;3.90;;;10.50;99.90;;;;;;4905047;29;20455;-80
2021/10/25 03:25:10;;;;;;;3.80;3.10;;;10.50;99.90;;;;;;4918429;29;20529;-80
2021/10/25 03:27:39;;;;;;;3.17;2.87;;;10.40;99.90;;;;;;4918705;29;21057;-79
2021/10/25 03:30:09;;;;;;;5.73;3.40;;;10.40;99.90;;;;;;4913468;29;20462;-80
2021/10/25 03:32:37;;;;;;;5.60;4.10;;;10.40;99.90;;;;;;4910024;29;20494;-79
2021/10/25 03:35:06;;;;;;;4.07;3.37;;;10.40;99.90;;;;;;4910470;29;20894;-79
2021/10/25 03:37:36;;;;;;;4.97;3.33;;;10.40;99.90;;;;;;4912202;29;20481;-80
2021/10/25 03:40:08;;;;;;;3.47;3.00;;;10.40;99.90;;;;;;4901455;29;20457;-80
2021/10/25 03:42:41;;;;;;;4.27;3.30;;;10.40;99.90;;;;;;4905749;29;20515;-81
2021/10/25 03:45:16;;;;;;;5.40;3.37;;;10.40;99.90;;;;;;4912544;29;20481;-80
2021/10/25 03:47:49;;;;;;;4.83;4.30;;;10.40;99.90;;;;;;4902234;29;20488;-80
2021/10/25 03:50:19;;;;;;;4.70;3.67;;;10.40;99.90;;;;;;4906000;29;21211;-81
2021/10/25 03:52:51;;;;;;;4.70;3.47;;;10.40;99.90;;;;;;4904482;29;20531;-80
2021/10/25 03:55:27;;;;;;;4.43;3.57;;;10.40;99.90;;;;;;4904519;29;20459;-80
2021/10/25 04:26:23;;;;;;;6.87;3.60;;;10.20;99.90;;;;;;4919715;29;20488;-80
2021/10/25 04:28:53;;;;;;;4.87;3.47;;;10.20;99.90;;;;;;4908648;29;20533;-81
2021/10/25 04:31:21;;;;;;;3.83;3.10;;;10.30;99.90;;;;;;4922823;29;20899;-80
2021/10/25 04:33:49;;;;;;;2.80;2.60;;;10.30;99.90;;;;;;4912078;29;20544;-78
2021/10/25 04:36:18;;;;;;;4.93;3.20;;;10.00;99.90;;;;;;4913018;29;20469;-75
2021/10/25 04:38:46;;;;;;;3.97;3.37;;;9.60;99.90;;;;;;4916742;29;20533;-77
2021/10/25 04:41:14;;;;;;;4.90;3.10;;;9.60;99.90;;;;;;4914984;29;20503;-76
2021/10/25 04:43:44;;;;;;;4.07;3.00;;;9.80;99.90;;;;;;4913039;29;20464;-76
2021/10/25 04:46:13;;;;;;;3.77;2.80;;;9.90;99.90;;;;;;4912295;29;20482;-76
2021/10/25 04:48:42;;;;;;;6.23;2.83;;;10.00;99.90;;;;;;4909677;29;20457;-78
2021/10/25 04:51:10;;;;;;;3.60;2.90;;;10.10;99.90;;;;;;4914911;29;20477;-78
2021/10/25 04:53:38;;;;;;;3.10;2.80;;;10.20;99.90;;;;;;4915528;29;20452;-78
2021/10/25 04:56:07;;;;;;;5.33;4.13;;;10.20;99.90;;;;;;4913437;29;20543;-78
2021/10/25 04:58:36;;;;;;;3.73;3.43;;;10.30;99.90;;;;;;4920900;29;20458;-79
2021/10/25 05:01:04;;;;;;;3.13;2.77;;;10.20;99.90;;;;;;4919827;29;20449;-78
2021/10/25 05:03:35;;;;;;;2.97;2.67;;;10.20;99.90;;;;;;4927633;29;21104;-78
2021/10/25 05:06:04;;;;;;;3.60;3.10;;;10.20;99.90;;;;;;4917809;29;20485;-78
2021/10/25 05:08:32;;;;;;;4.67;2.37;;;10.20;99.90;;;;;;4914988;29;20481;-79
2021/10/25 05:11:02;;;;;;;3.93;2.97;;;10.20;99.90;;;;;;4921297;29;20466;-79
2021/10/25 05:13:30;;;;;;;3.03;2.60;;;10.20;99.90;;;;;;4914906;29;20457;-80
2021/10/25 05:15:58;;;;;;;3.80;3.27;;;10.30;99.90;;;;;;4915506;29;20522;-79
2021/10/25 05:18:26;;;;;;;3.03;2.83;;;10.30;99.90;;;;;;4923938;29;20540;-78
2021/10/25 05:20:56;;;;;;;3.10;2.40;;;10.30;99.90;;;;;;4919459;29;20492;-80
2021/10/25 05:23:24;;;;;;;4.45;3.78;;;10.30;99.90;;;;;;4912684;29;20497;-79
2021/10/25 05:25:52;;;;;;;4.70;3.07;;;10.30;99.90;;;;;;4912913;29;20235;-78
2021/10/25 05:28:20;;;;;;;4.70;3.30;;;10.30;99.90;;;;;;4909553;29;20480;-78
2021/10/25 05:30:49;;;;;;;8.10;3.63;;;10.30;99.90;;;;;;4918597;29;21008;-78
2021/10/25 05:33:17;;;;;;;5.20;4.17;;;10.30;99.90;;;;;;4915856;29;20746;-79
2021/10/25 05:35:45;;;;;;;3.40;3.20;;;10.30;99.90;;;;;;4905522;29;20464;-79
2021/10/25 05:38:15;;;;;;;4.60;3.67;;;10.20;99.90;;;;;;4910566;29;21012;-78
2021/10/25 05:40:44;;;;;;;3.53;3.23;;;10.30;99.90;;;;;;4918912;29;20458;-78
2021/10/25 05:43:12;;;;;;;4.50;3.47;;;10.20;99.90;;;;;;4914193;29;20573;-77
2021/10/25 05:45:40;;;;;;;4.30;3.30;;;10.20;99.90;;;;;;4905747;29;20495;-79
2021/10/25 05:48:08;;;;;;;6.23;3.90;;;10.20;99.90;;;;;;4905598;29;20484;-79
2021/10/25 05:50:36;;;;;;;3.77;3.30;;;10.10;99.90;;;;;;4918578;29;20473;-79
2021/10/25 05:53:08;;;;;;;6.50;5.07;;;10.10;99.90;;;;;;4911399;29;20512;-78
2021/10/25 05:55:39;;;;;;;4.93;4.33;;;10.10;99.90;;;;;;4911409;29;20454;-79
2021/10/25 05:58:12;;;;;;;7.83;4.10;;;10.10;99.90;;;;;;4914369;29;20484;-78
2021/10/25 06:00:41;;;;;;;5.13;3.50;;;10.10;99.90;;;;;;4914845;29;20465;-78
2021/10/25 06:03:09;;;;;;;4.47;3.40;;;10.10;99.90;;;;;;4916671;29;20536;-78
2021/10/25 06:05:40;;;;;;;3.60;3.27;;;10.00;99.90;;;;;;4911913;29;20460;-79
2021/10/25 06:08:11;;;;;;;4.30;3.53;;;10.10;99.90;;;;;;4914091;29;20496;-79
2021/10/25 06:10:40;;;;;;;4.03;3.37;;;10.10;99.90;;;;;;4923058;29;20463;-79
2021/10/25 06:13:11;;;;;;;3.73;3.30;;;10.20;99.90;;;;;;4921445;29;20459;-80
2021/10/25 06:15:41;;;;;;;5.30;3.70;;;10.20;99.90;;;;;;4916950;29;20448;-78
2021/10/25 06:18:10;;;;;;;3.77;3.43;;;10.10;99.90;;;;;;4909428;29;20892;-79
2021/10/25 06:20:40;;;;;;;5.00;3.20;;;10.10;99.90;;;;;;4906168;29;20467;-78
2021/10/25 06:23:10;;;;;;;3.60;3.30;;;10.10;99.90;;;;;;4913454;29;20500;-78
2021/10/25 06:25:42;;;;;;;4.80;2.67;;;10.10;99.90;;;;;;4905551;29;21656;-78
2021/10/25 06:28:11;;;;;;;3.60;3.27;;;10.20;99.90;;;;;;4904542;29;20506;-78
2021/10/25 06:30:39;;;;;;;4.73;2.93;;;10.20;99.90;;;;;;4906156;29;20457;-78
2021/10/25 06:33:08;;;;;;;2.97;2.77;;;10.10;99.90;;;;;;4908772;29;20466;-80
2021/10/25 06:35:36;;;;;;;3.60;3.20;;;10.10;99.90;;;;;;4908455;29;20543;-79
2021/10/25 06:38:09;;;;;;;5.60;2.70;;;10.00;99.90;;;;;;4904965;29;20482;-78
2021/10/25 06:40:37;;;;;;;4.13;3.03;;;10.00;99.90;;;;;;4906944;29;20457;-80
2021/10/25 06:43:10;;;;;;;4.67;3.07;;;10.10;99.90;;;;;;4910300;29;20467;-79
2021/10/25 06:45:39;;;;;;;3.70;3.40;;;10.20;99.90;;;;;;4905954;29;20464;-80
2021/10/25 06:48:07;;;;;;;5.60;3.17;;;10.30;99.90;;;;;;4908067;29;20492;-79
2021/10/25 06:50:39;;;;;;;3.83;2.73;;;10.30;99.90;;;;;;4908189;29;20467;-78
2021/10/25 06:53:08;;;;;;;4.07;3.67;;;10.40;99.90;;;;;;4900604;29;20469;-80
2021/10/25 06:55:37;;;;;;;3.80;2.83;;;10.40;99.90;;;;;;4908468;29;20449;-78
2021/10/25 06:58:07;;;;;;;6.27;3.10;;;10.40;99.90;;;;;;4917429;29;21024;-78
2021/10/25 07:00:35;;;;;;;5.93;3.63;;;10.40;99.90;;;;;;4904915;29;20457;-80
2021/10/25 07:03:04;;;;;;;2.80;2.60;;;10.40;99.90;;;;;;4902983;29;20471;-79
2021/10/25 07:05:35;;;;;;;3.07;2.57;;;10.40;99.90;;;;;;4911948;29;20590;-78
2021/10/25 07:08:03;;;;;;;3.70;2.83;;;10.40;99.90;;;;;;4902143;29;20499;-78
2021/10/25 07:10:32;;;;;;;3.40;3.10;;;10.40;99.90;;;;;;4910615;29;20517;-79
2021/10/25 07:13:18;;;;;;;2.77;2.57;;;10.40;99.90;;;;;;4907287;29;20457;-78
2021/10/25 07:15:49;;;;;;;5.50;3.57;;;10.40;99.90;;;;;;4902229;29;20464;-78
2021/10/25 07:18:22;;;;;;;3.40;3.10;;;10.50;99.90;;;;;;4907287;29;21107;-77
2021/10/25 07:21:14;;;;;;;3.10;2.90;;;10.50;99.90;;;;;;4909789;29;20461;-78
2021/10/25 08:11:04;;;;;;;4.50;3.30;;;11.50;99.90;;;;;;4912308;29;20559;-79
2021/10/25 08:13:35;;;;;;;4.07;3.27;;;11.60;99.90;;;;;;4913171;29;20470;-77
2021/10/25 08:16:12;;;;;;;4.10;2.63;;;11.50;99.90;;;;;;4907623;29;20477;-78
2021/10/25 08:19:05;;;;;;;3.00;2.57;;;11.60;99.90;;;;;;4911500;29;20538;-78
2021/10/25 08:21:33;;;;;;;6.13;3.50;;;11.60;99.90;;;;;;4911603;29;20446;-78
2021/10/25 08:24:01;;;;;;;4.40;3.33;;;11.60;99.90;;;;;;4912048;29;21009;-78
2021/10/25 08:26:29;;;;;;;4.97;3.00;;;11.70;99.90;;;;;;4913616;29;20442;-78
2021/10/25 08:28:58;;;;;;;4.23;3.50;;;11.70;99.90;;;;;;4911008;29;20462;-78
2021/10/25 08:31:27;;;;;;;9.03;3.70;;;11.70;99.90;;;;;;4913418;29;20454;-76
2021/10/25 08:39:52;;;;;;;9.80;3.93;;;11.70;99.90;;;;;;4906978;29;20831;-79
2021/10/25 08:42:22;;;;;;;3.30;3.00;;;11.70;99.90;;;;;;4909468;29;20556;-78
2021/10/25 08:44:57;;;;;;;5.97;3.70;;;11.60;99.90;;;;;;4913865;29;20462;-78
2021/10/25 08:47:27;;;;;;;4.53;3.87;;;11.50;99.90;;;;;;4927345;29;20473;-77
2021/10/25 08:49:57;;;;;;;4.87;3.30;;;11.30;99.90;;;;;;4913866;29;20465;-77
2021/10/25 08:52:26;;;;;;;4.80;3.70;;;11.50;99.90;;;;;;4910039;29;20473;-77
2021/10/25 08:54:55;;;;;;;4.00;3.60;;;11.70;99.90;;;;;;4912309;29;20454;-78
2021/10/25 08:57:24;;;;;;;3.13;2.87;;;11.90;99.90;;;;;;4911956;29;20537;-76
2021/10/25 08:59:58;;;;;;;4.40;3.17;;;12.10;99.90;;;;;;4909424;29;20468;-78
2021/10/25 09:02:28;;;;;;;3.20;2.27;;;12.20;99.90;;;;;;4907198;29;20512;-78
2021/10/25 09:05:10;;;;;;;2.07;1.87;;;12.30;99.90;;;;;;4912173;29;20493;-78
2021/10/25 09:07:50;;;;;;;2.10;1.77;;;12.40;99.90;;;;;;4910517;29;20569;-78
2021/10/25 09:10:24;;;;;;;3.80;2.23;;;12.50;99.90;;;;;;4913132;29;20465;-77
2021/10/25 09:12:57;;;;;;;1.83;1.70;;;12.40;99.90;;;;;;4911557;29;21350;-78
2021/10/25 09:15:26;;;;;;;3.83;1.83;;;12.60;99.90;;;;;;4906562;29;20512;-78
2021/10/25 09:17:54;;;;;;;2.33;1.70;;;13.00;99.90;;;;;;4911558;29;20486;-78
2021/10/25 09:20:24;;;;;;;2.43;1.87;;;13.30;99.90;;;;;;4912712;29;20890;-77
2021/10/25 09:23:06;;;;;;;3.37;2.80;;;13.50;99.90;;;;;;4914942;29;20466;-78
2021/10/25 09:25:36;;;;;;;2.40;1.73;;;13.70;99.90;;;;;;4905366;29;20862;-78
2021/10/25 09:28:14;;;;;;;3.03;2.40;;;13.70;99.90;;;;;;4907600;29;20492;-78
2021/10/25 09:30:47;;;;;;;2.80;1.77;;;13.80;99.90;;;;;;4909274;29;20463;-77
2021/10/25 09:33:20;;;;;;;3.53;2.40;;;13.90;99.90;;;;;;4908368;29;20477;-78
2021/10/25 09:35:57;;;;;;;2.50;2.30;;;13.90;99.90;;;;;;4913031;29;20547;-78
2021/10/25 09:38:33;;;;;;;2.63;2.43;;;13.90;99.90;;;;;;4907632;29;21060;-78
2021/10/25 09:41:40;;;;;;;3.33;2.17;;;14.00;99.90;;;;;;4909358;29;20468;-78
2021/10/25 09:49:48;;;;;;;2.23;1.90;;;13.80;99.90;;;;;;4903154;29;20544;-79
2021/10/25 09:52:18;;;;;;;2.10;1.90;;;13.90;99.90;;;;;;4906935;29;20463;-78
2021/10/25 09:54:57;;;;;;;2.23;1.40;;;13.80;99.90;;;;;;4905730;29;20912;-78
2021/10/25 09:57:34;;;;;;;2.13;1.60;;;13.80;99.90;;;;;;4911788;29;20850;-78
2021/10/25 10:00:04;;;;;;;2.70;1.80;;;13.70;99.90;;;;;;4911769;29;20470;-80
2021/10/25 10:02:32;;;;;;;2.90;1.80;;;13.80;99.90;;;;;;4907941;29;21315;-78
2021/10/25 10:05:04;;;;;;;2.03;1.37;;;13.90;99.90;;;;;;4906060;29;20512;-78
2021/10/25 10:07:34;;;;;;;2.83;1.87;;;13.90;99.90;;;;;;4910616;29;20846;-79
2021/10/25 10:10:04;;;;;;;1.93;1.77;;;14.00;99.90;;;;;;4902423;29;20454;-78
2021/10/25 10:12:32;;;;;;;1.67;1.57;;;14.00;99.90;;;;;;4907531;29;20471;-79
2021/10/25 10:15:03;;;;;;;1.50;1.20;;;14.00;99.90;;;;;;4912138;29;20460;-78
2021/10/25 10:17:36;;;;;;;1.80;1.47;;;14.20;99.90;;;;;;4912871;29;20516;-78
2021/10/25 10:20:07;;;;;;;3.07;1.50;;;14.30;99.90;;;;;;4908345;29;20495;-78
2021/10/25 10:22:39;;;;;;;2.23;1.67;;;14.40;99.90;;;;;;4905821;29;20473;-78
2021/10/25 10:25:09;;;;;;;5.27;2.00;;;14.60;99.90;;;;;;4910663;29;20888;-78
2021/10/25 10:27:37;;;;;;;2.43;1.73;;;14.80;99.90;;;;;;4909584;29;20559;-79
2021/10/25 10:30:10;;;;;;;2.50;2.07;;;15.10;99.90;;;;;;4910086;29;22594;-78
2021/10/25 10:32:39;;;;;;;3.70;1.60;;;15.40;99.90;;;;;;4907796;29;20480;-79
2021/10/25 10:35:09;;;;;;;9.73;2.70;;;15.60;99.90;;;;;;4903076;29;20469;-79
2021/10/25 10:37:41;;;;;;;3.40;1.60;;;15.70;99.90;;;;;;4905265;29;20486;-80
2021/10/25 10:40:14;;;;;;;1.80;1.57;;;15.60;99.90;;;;;;4920226;29;20461;-78
2021/10/25 10:42:44;;;;;;;3.43;1.50;;;15.50;99.90;;;;;;4907190;29;20461;-79
2021/10/25 10:45:13;;;;;;;1.57;1.47;;;15.70;99.90;;;;;;4910340;29;20469;-78
2021/10/25 10:47:43;;;;;;;1.80;1.33;;;15.70;99.90;;;;;;4905601;29;20481;-80
2021/10/25 10:50:22;;;;;;;1.93;1.30;;;15.80;99.90;;;;;;4911244;29;20461;-77
2021/10/25 10:53:09;;;;;;;2.83;1.50;;;15.90;99.90;;;;;;4910717;29;21174;-78
2021/10/25 10:55:39;;;;;;;1.80;1.20;;;15.70;99.90;;;;;;4903455;29;22786;-78
2021/10/25 10:58:25;;;;;;;2.10;1.00;;;15.40;99.90;;;;;;4906989;29;20532;-78
2021/10/25 11:01:06;;;;;;;1.70;1.13;;;15.30;99.30;;;;;;4905599;29;20474;-78
2021/10/25 11:03:35;;;;;;;1.20;1.10;;;15.30;99.90;;;;;;4904784;29;20458;-79
2021/10/25 11:06:07;;;;;;;1.37;1.27;;;15.50;98.90;;;;;;4904398;29;20465;-78
2021/10/25 11:08:39;;;;;;;1.20;1.10;;;15.60;98.70;;;;;;4905026;29;20477;-79
2021/10/25 11:11:11;;;;;;;1.30;1.20;;;15.70;99.40;;;;;;4905690;29;20478;-78
2021/10/25 11:13:43;;;;;;;1.37;1.13;;;15.70;99.20;;;;;;4912428;29;20467;-79
2021/10/25 11:16:15;;;;;;;1.50;1.40;;;16.00;99.20;;;;;;4905134;29;21106;-78
2021/10/25 11:18:45;;;;;;;1.30;1.20;;;16.20;99.90;;;;;;4905614;29;20485;-78
2021/10/25 11:21:21;;;;;;;1.10;1.00;;;16.50;99.90;;;;;;4901876;29;20525;-79
2021/10/25 11:23:54;;;;;;;2.07;1.20;;;16.70;99.90;;;;;;4906971;29;21115;-80
2021/10/25 11:26:27;;;;;;;2.37;1.00;;;16.80;99.90;;;;;;4907677;29;20462;-76
2021/10/25 11:29:04;;;;;;;3.73;1.30;;;16.90;99.90;;;;;;4925865;29;20518;-78
2021/10/25 11:31:35;;;;;;;1.90;1.00;;;16.90;99.90;;;;;;4907745;29;20972;-76
2021/10/25 11:34:09;;;;;;;1.33;1.20;;;17.10;99.90;;;;;;4908971;29;20868;-77
2021/10/25 11:36:37;;;;;;;1.70;1.60;;;17.30;99.90;;;;;;4908775;29;20575;-77
2021/10/25 11:39:09;;;;;;;1.27;0.93;;;17.40;99.90;;;;;;4905245;29;20458;-77
2021/10/25 11:41:49;;;;;;;1.30;1.20;;;17.40;99.90;;;;;;4913105;29;20469;-78
2021/10/25 11:44:17;;;;;;;1.20;1.10;;;17.40;99.90;;;;;;4906655;29;20483;-78
2021/10/25 11:46:45;;;;;;;1.73;0.90;;;17.40;99.90;;;;;;4911244;29;20831;-78
2021/10/25 11:49:21;;;;;;;0.80;0.80;;;17.40;97.90;;;;;;4914328;29;20496;-78
2021/10/25 11:51:49;;;;;;;3.90;1.20;;;17.40;97.20;;;;;;4910374;29;20500;-78
2021/10/25 11:54:19;;;;;;;2.30;0.83;;;17.50;91.50;;;;;;4918255;29;20457;-78
2021/10/25 11:56:51;;;;;;;1.00;0.90;;;17.50;91.40;;;;;;4914551;29;20483;-77
2021/10/25 11:59:21;;;;;;;1.53;0.80;;;17.50;90.20;;;;;;4918953;29;20874;-78
2021/10/25 12:01:51;;;;;;;4.00;1.23;;;17.50;91.50;;;;;;4915203;29;20472;-78
2021/10/25 12:04:21;;;;;;;1.30;0.93;;;17.70;99.90;;;;;;4921086;29;20549;-79
2021/10/25 12:06:58;;;;;;;1.03;0.90;;;17.70;92.20;;;;;;4915324;29;20489;-77
2021/10/25 12:09:34;;;;;;;1.70;1.30;;;17.60;87.60;;;;;;4915485;29;20492;-78
2021/10/25 12:12:07;;;;;;;1.53;1.10;;;17.70;90.70;;;;;;4905690;29;21585;-78
2021/10/25 12:14:38;;;;;;;0.80;0.80;;;17.70;87.90;;;;;;4915549;29;20504;-79
2021/10/25 12:17:09;;;;;;;3.63;1.00;;;17.80;86.50;;;;;;4914331;29;20485;-78
2021/10/25 12:19:39;;;;;;;1.10;0.80;;;17.80;89.20;;;;;;4917077;29;20512;-79
2021/10/25 12:22:14;;;;;;;1.10;0.90;;;18.00;89.00;;;;;;4916551;29;20473;-79
2021/10/25 12:24:46;;;;;;;1.13;0.90;;;18.00;86.60;;;;;;4917808;29;20457;-78
2021/10/25 12:27:17;;;;;;;0.90;0.90;;;18.00;83.70;;;;;;4909484;29;20473;-78
2021/10/25 12:29:46;;;;;;;1.17;0.90;;;18.20;86.40;;;;;;4915354;29;20466;-78
2021/10/25 12:32:14;;;;;;;1.17;1.07;;;18.20;83.40;;;;;;4916563;29;20461;-79
2021/10/25 12:34:54;;;;;;;0.97;0.87;;;18.30;84.90;;;;;;4933019;29;20520;-79
2021/10/25 12:37:25;;;;;;;1.13;0.70;;;18.40;85.80;;;;;;4910989;29;20487;-79
2021/10/25 12:39:56;;;;;;;0.80;0.70;;;18.50;86.70;;;;;;4915554;29;20453;-78
2021/10/25 12:42:26;;;;;;;1.13;0.90;;;18.60;83.50;;;;;;4918047;29;20458;-78
2021/10/25 12:44:55;;;;;;;1.07;0.97;;;18.60;83.70;;;;;;4925920;29;21012;-76
2021/10/25 12:47:25;;;;;;;1.00;0.90;;;18.70;93.50;;;;;;4907989;29;20481;-75
2021/10/25 12:49:55;;;;;;;2.20;0.87;;;18.70;93.50;;;;;;4911113;29;20477;-75
2021/10/25 12:52:24;;;;;;;1.07;0.90;;;18.80;92.30;;;;;;4920522;29;20450;-75
2021/10/25 12:54:58;;;;;;;0.80;0.73;;;18.80;91.70;;;;;;4919279;29;20903;-74
2021/10/25 12:57:32;;;;;;;1.70;0.90;;;18.80;94.00;;;;;;4920171;29;20477;-75
2021/10/25 13:00:07;;;;;;;1.30;1.10;;;18.90;96.70;;;;;;4921569;29;20457;-75
2021/10/25 13:02:41;;;;;;;1.47;1.00;;;18.90;93.10;;;;;;4916732;29;20965;-75
2021/10/25 13:05:13;;;;;;;0.80;0.80;;;18.90;93.70;;;;;;4918412;29;20827;-75
2021/10/25 13:07:50;;;;;;;0.90;0.90;;;18.90;97.00;;;;;;4916885;29;20469;-76
2021/10/25 13:10:20;;;;;;;1.00;0.70;;;19.00;92.30;;;;;;4911502;29;20517;-75
2021/10/25 13:12:51;;;;;;;1.10;0.80;;;18.90;91.50;;;;;;4916730;29;20984;-76
2021/10/25 13:15:20;;;;;;;0.80;0.80;;;18.90;91.90;;;;;;4926966;29;20473;-75
2021/10/25 13:17:48;;;;;;;0.90;0.80;;;18.80;90.70;;;;;;4913893;29;20493;-75
2021/10/25 13:20:20;;;;;;;1.13;0.80;;;18.90;91.10;;;;;;4914923;29;20516;-76
2021/10/25 13:22:49;;;;;;;0.90;0.80;;;18.90;90.80;;;;;;4910501;29;20461;-76
2021/10/25 13:25:19;;;;;;;3.60;0.93;;;18.90;91.00;;;;;;4912980;29;20462;-77
2021/10/25 13:27:48;;;;;;;1.67;0.90;;;18.90;89.20;;;;;;4908376;29;20474;-75
2021/10/25 13:30:19;;;;;;;1.03;0.93;;;18.90;91.40;;;;;;4909934;29;21012;-77
2021/10/25 13:32:48;;;;;;;1.43;0.87;;;19.00;91.30;;;;;;4913610;29;20520;-75
2021/10/25 13:35:17;;;;;;;1.17;1.03;;;19.00;91.40;;;;;;4912644;29;21817;-75
2021/10/25 13:37:51;;;;;;;1.30;0.83;;;19.00;88.80;;;;;;4909199;29;20491;-75
2021/10/25 13:40:20;;;;;;;0.97;0.87;;;18.80;85.80;;;;;;4910830;29;20462;-76
2021/10/25 13:42:49;;;;;;;1.00;0.97;;;18.80;86.90;;;;;;4912260;29;20568;-75
2021/10/25 13:45:19;;;;;;;1.27;1.00;;;18.90;87.50;;;;;;4910720;29;20462;-76
2021/10/25 13:47:48;;;;;;;1.80;1.10;;;18.90;87.50;;;;;;4906250;29;20533;-75
2021/10/25 13:50:17;;;;;;;1.13;1.03;;;19.00;86.50;;;;;;4910771;29;20482;-74
2021/10/25 13:52:45;;;;;;;1.20;0.90;;;19.10;86.80;;;;;;4907346;29;20911;-76
2021/10/25 13:55:13;;;;;;;0.90;0.90;;;19.00;83.30;;;;;;4919402;29;20468;-75
2021/10/25 13:57:44;;;;;;;0.80;0.80;;;18.90;81.50;;;;;;4916249;29;20481;-76
2021/10/25 14:00:15;;;;;;;1.53;0.83;;;18.80;75.00;;;;;;4916667;29;20450;-76
2021/10/25 14:02:46;;;;;;;0.70;0.70;;;18.70;74.20;;;;;;4919490;29;20460;-76
2021/10/25 14:05:18;;;;;;;2.37;1.00;;;18.70;72.10;;;;;;4919396;29;20462;-76
2021/10/25 14:07:46;;;;;;;1.47;1.00;;;18.70;69.90;;;;;;4922203;29;20481;-77
2021/10/25 14:10:20;;;;;;;1.10;0.93;;;18.70;71.10;;;;;;4917400;29;20626;-76
2021/10/25 14:12:50;;;;;;;0.80;0.80;;;18.80;76.00;;;;;;4923986;29;20465;-80
2021/10/25 14:15:27;;;;;;;2.07;1.20;;;18.80;76.20;;;;;;4917180;29;20450;-79
2021/10/25 14:17:59;;;;;;;1.40;0.93;;;18.70;77.90;;;;;;4916516;29;20517;-81
2021/10/25 14:20:30;;;;;;;2.00;1.80;;;18.60;76.90;;;;;;4920557;29;20454;-80
2021/10/25 14:23:00;;;;;;;2.17;1.40;;;18.40;73.90;;;;;;4920810;29;20469;-82
2021/10/25 14:25:29;;;;;;;1.83;1.30;;;18.40;75.80;;;;;;4915685;29;20466;-81
2021/10/25 14:27:58;;;;;;;1.30;1.20;;;18.30;73.90;;;;;;4916956;29;20485;-80
2021/10/25 14:30:27;;;;;;;1.20;1.10;;;18.30;77.00;;;;;;4918055;29;20481;-80
2021/10/25 14:33:03;;;;;;;2.17;1.10;;;18.40;76.70;;;;;;4916673;29;20458;-83